sensor_id;sensor_type;location;lat;lon;timestamp;temperature;humidity
12164;DHT22;6145;50.192;10.064;2022-09-13T00:01:01;16.50;61.40
12164;DHT22;6145;50.192;10.064;2022-09-13T00:03:28;16.50;61.50
12164;DHT22;6145;50.192;10.064;2022-09-13T00:05:55;16.50;61.80
12164;DHT22;6145;50.192;10.064;2022-09-13T00:08:23;16.40;61.70
12164;DHT22;6145;50.192;10.064;2022-09-13T00:10:50;16.40;61.80
12164;DHT22;6145;50.192;10.064;2022-09-13T00:13:17;16.40;61.90
12164;DHT22;6145;50.192;10.064;2022-09-13T00:15:46;16.40;61.90
12164;DHT22;6145;50.192;10.064;2022-09-13T00:18:13;16.40;61.90
12164;DHT22;6145;50.192;10.064;2022-09-13T00:20:40;16.30;61.80
12164;DHT22;6145;50.192;10.064;2022-09-13T00:23:07;16.30;62.00
12164;DHT22;6145;50.192;10.064;2022-09-13T00:25:36;16.30;61.90
12164;DHT22;6145;50.192;10.064;2022-09-13T00:28:03;16.30;62.00
12164;DHT22;6145;50.192;10.064;2022-09-13T00:30:30;16.20;61.80
12164;DHT22;6145;50.192;10.064;2022-09-13T00:32:57;16.20;61.90
12164;DHT22;6145;50.192;10.064;2022-09-13T00:35:24;16.20;62.10
12164;DHT22;6145;50.192;10.064;2022-09-13T00:37:51;16.10;62.10
12164;DHT22;6145;50.192;10.064;2022-09-13T00:40:18;16.10;62.90
12164;DHT22;6145;50.192;10.064;2022-09-13T00:42:47;16.10;62.20
12164;DHT22;6145;50.192;10.064;2022-09-13T00:45:16;16.10;63.00
12164;DHT22;6145;50.192;10.064;2022-09-13T00:47:46;16.00;62.10
12164;DHT22;6145;50.192;10.064;2022-09-13T00:50:17;16.00;62.20
12164;DHT22;6145;50.192;10.064;2022-09-13T00:52:48;16.00;62.30
12164;DHT22;6145;50.192;10.064;2022-09-13T00:55:21;16.00;62.30
12164;DHT22;6145;50.192;10.064;2022-09-13T00:57:50;16.00;62.40
12164;DHT22;6145;50.192;10.064;2022-09-13T01:00:19;15.90;62.40
12164;DHT22;6145;50.192;10.064;2022-09-13T01:02:49;15.90;62.50
12164;DHT22;6145;50.192;10.064;2022-09-13T01:05:21;15.90;62.50
12164;DHT22;6145;50.192;10.064;2022-09-13T01:07:49;15.80;62.40
12164;DHT22;6145;50.192;10.064;2022-09-13T01:10:16;15.80;62.50
12164;DHT22;6145;50.192;10.064;2022-09-13T01:12:48;15.80;62.50
12164;DHT22;6145;50.192;10.064;2022-09-13T01:15:19;15.80;62.40
12164;DHT22;6145;50.192;10.064;2022-09-13T01:17:47;15.80;62.40
12164;DHT22;6145;50.192;10.064;2022-09-13T01:20:15;15.70;62.30
12164;DHT22;6145;50.192;10.064;2022-09-13T01:32:03;15.60;62.50
12164;DHT22;6145;50.192;10.064;2022-09-13T01:34:41;15.60;62.60
12164;DHT22;6145;50.192;10.064;2022-09-13T01:37:29;15.50;62.70
12164;DHT22;6145;50.192;10.064;2022-09-13T01:40:04;15.50;62.90
12164;DHT22;6145;50.192;10.064;2022-09-13T01:42:44;15.50;62.80
12164;DHT22;6145;50.192;10.064;2022-09-13T01:45:22;15.50;62.80
12164;DHT22;6145;50.192;10.064;2022-09-13T01:47:55;15.40;62.80
12164;DHT22;6145;50.192;10.064;2022-09-13T01:50:32;15.40;62.80
12164;DHT22;6145;50.192;10.064;2022-09-13T01:53:04;15.40;63.00
12164;DHT22;6145;50.192;10.064;2022-09-13T01:55:37;15.30;62.80
12164;DHT22;6145;50.192;10.064;2022-09-13T01:58:14;15.30;62.90
12164;DHT22;6145;50.192;10.064;2022-09-13T02:00:47;15.30;62.90
12164;DHT22;6145;50.192;10.064;2022-09-13T02:03:24;15.30;63.00
12164;DHT22;6145;50.192;10.064;2022-09-13T02:05:56;15.30;63.00
12164;DHT22;6145;50.192;10.064;2022-09-13T02:08:33;15.20;63.00
12164;DHT22;6145;50.192;10.064;2022-09-13T02:11:06;15.20;62.90
12164;DHT22;6145;50.192;10.064;2022-09-13T02:13:37;15.20;62.90
12164;DHT22;6145;50.192;10.064;2022-09-13T02:16:09;15.20;63.00
12164;DHT22;6145;50.192;10.064;2022-09-13T02:18:39;15.10;62.90
12164;DHT22;6145;50.192;10.064;2022-09-13T02:21:10;15.10;62.90
12164;DHT22;6145;50.192;10.064;2022-09-13T02:23:40;15.10;63.10
12164;DHT22;6145;50.192;10.064;2022-09-13T02:26:12;15.10;63.20
12164;DHT22;6145;50.192;10.064;2022-09-13T02:28:43;15.10;63.20
12164;DHT22;6145;50.192;10.064;2022-09-13T02:31:12;15.10;63.20
12164;DHT22;6145;50.192;10.064;2022-09-13T02:33:43;15.00;63.10
12164;DHT22;6145;50.192;10.064;2022-09-13T02:36:14;15.00;63.10
12164;DHT22;6145;50.192;10.064;2022-09-13T02:38:46;15.00;63.10
12164;DHT22;6145;50.192;10.064;2022-09-13T02:41:18;15.00;63.10
12164;DHT22;6145;50.192;10.064;2022-09-13T02:43:54;15.00;63.20
12164;DHT22;6145;50.192;10.064;2022-09-13T02:46:33;14.90;63.40
12164;DHT22;6145;50.192;10.064;2022-09-13T02:49:12;14.90;63.40
12164;DHT22;6145;50.192;10.064;2022-09-13T02:51:44;14.80;63.50
12164;DHT22;6145;50.192;10.064;2022-09-13T02:54:21;14.80;63.50
12164;DHT22;6145;50.192;10.064;2022-09-13T02:56:54;14.80;63.60
12164;DHT22;6145;50.192;10.064;2022-09-13T02:59:24;14.80;63.60
12164;DHT22;6145;50.192;10.064;2022-09-13T03:01:56;14.70;63.50
12164;DHT22;6145;50.192;10.064;2022-09-13T03:04:26;14.70;63.60
12164;DHT22;6145;50.192;10.064;2022-09-13T03:06:53;14.70;63.60
12164;DHT22;6145;50.192;10.064;2022-09-13T03:09:20;14.70;63.60
12164;DHT22;6145;50.192;10.064;2022-09-13T03:11:58;14.70;63.70
12164;DHT22;6145;50.192;10.064;2022-09-13T03:14:36;14.70;63.70
12164;DHT22;6145;50.192;10.064;2022-09-13T03:17:13;14.70;63.80
12164;DHT22;6145;50.192;10.064;2022-09-13T03:19:52;14.70;63.90
12164;DHT22;6145;50.192;10.064;2022-09-13T03:22:35;14.60;63.70
12164;DHT22;6145;50.192;10.064;2022-09-13T03:25:07;14.60;63.70
12164;DHT22;6145;50.192;10.064;2022-09-13T03:27:44;14.50;63.70
12164;DHT22;6145;50.192;10.064;2022-09-13T03:30:17;14.50;63.70
12164;DHT22;6145;50.192;10.064;2022-09-13T03:32:49;14.50;63.70
12164;DHT22;6145;50.192;10.064;2022-09-13T03:35:24;14.50;63.80
12164;DHT22;6145;50.192;10.064;2022-09-13T03:37:56;14.50;63.80
12164;DHT22;6145;50.192;10.064;2022-09-13T03:40:33;14.50;63.80
12164;DHT22;6145;50.192;10.064;2022-09-13T03:43:03;14.40;63.70
12164;DHT22;6145;50.192;10.064;2022-09-13T03:45:37;14.40;63.80
12164;DHT22;6145;50.192;10.064;2022-09-13T03:48:06;14.40;63.80
12164;DHT22;6145;50.192;10.064;2022-09-13T03:50:34;14.40;63.90
12164;DHT22;6145;50.192;10.064;2022-09-13T03:53:05;14.30;64.00
12164;DHT22;6145;50.192;10.064;2022-09-13T03:55:34;14.30;64.00
12164;DHT22;6145;50.192;10.064;2022-09-13T03:58:04;14.30;64.10
12164;DHT22;6145;50.192;10.064;2022-09-13T04:00:31;14.30;64.20
12164;DHT22;6145;50.192;10.064;2022-09-13T04:02:58;14.30;64.10
12164;DHT22;6145;50.192;10.064;2022-09-13T04:05:25;14.20;64.00
12164;DHT22;6145;50.192;10.064;2022-09-13T04:07:53;14.20;64.00
12164;DHT22;6145;50.192;10.064;2022-09-13T04:10:19;14.20;64.10
12164;DHT22;6145;50.192;10.064;2022-09-13T04:12:48;14.20;64.30
12164;DHT22;6145;50.192;10.064;2022-09-13T04:15:16;14.20;64.30
12164;DHT22;6145;50.192;10.064;2022-09-13T04:17:43;14.20;64.30
12164;DHT22;6145;50.192;10.064;2022-09-13T04:20:10;14.10;64.30
12164;DHT22;6145;50.192;10.064;2022-09-13T04:22:37;14.10;64.40
12164;DHT22;6145;50.192;10.064;2022-09-13T04:25:06;14.10;64.50
12164;DHT22;6145;50.192;10.064;2022-09-13T04:27:32;14.10;64.50
12164;DHT22;6145;50.192;10.064;2022-09-13T04:30:00;14.10;64.50
12164;DHT22;6145;50.192;10.064;2022-09-13T04:32:27;14.10;64.60
12164;DHT22;6145;50.192;10.064;2022-09-13T04:34:54;14.10;64.60
12164;DHT22;6145;50.192;10.064;2022-09-13T04:37:20;14.10;64.60
12164;DHT22;6145;50.192;10.064;2022-09-13T04:39:48;14.10;64.60
12164;DHT22;6145;50.192;10.064;2022-09-13T04:42:16;14.00;64.60
12164;DHT22;6145;50.192;10.064;2022-09-13T04:44:44;14.00;64.60
12164;DHT22;6145;50.192;10.064;2022-09-13T04:47:10;14.00;64.60
12164;DHT22;6145;50.192;10.064;2022-09-13T04:49:37;14.00;64.80
12164;DHT22;6145;50.192;10.064;2022-09-13T04:52:04;14.00;64.80
12164;DHT22;6145;50.192;10.064;2022-09-13T04:54:31;14.00;65.00
12164;DHT22;6145;50.192;10.064;2022-09-13T04:56:58;14.00;65.00
12164;DHT22;6145;50.192;10.064;2022-09-13T04:59:26;14.00;65.00
12164;DHT22;6145;50.192;10.064;2022-09-13T05:01:52;14.00;65.10
12164;DHT22;6145;50.192;10.064;2022-09-13T05:04:20;13.90;65.10
12164;DHT22;6145;50.192;10.064;2022-09-13T05:06:47;13.90;65.10
12164;DHT22;6145;50.192;10.064;2022-09-13T05:09:14;14.00;65.30
12164;DHT22;6145;50.192;10.064;2022-09-13T05:11:41;13.90;65.20
12164;DHT22;6145;50.192;10.064;2022-09-13T05:14:09;13.90;65.30
12164;DHT22;6145;50.192;10.064;2022-09-13T05:16:45;13.90;65.50
12164;DHT22;6145;50.192;10.064;2022-09-13T05:19:12;14.00;65.70
12164;DHT22;6145;50.192;10.064;2022-09-13T05:21:38;13.90;65.70
12164;DHT22;6145;50.192;10.064;2022-09-13T05:24:05;13.90;65.70
12164;DHT22;6145;50.192;10.064;2022-09-13T05:26:32;13.90;65.80
12164;DHT22;6145;50.192;10.064;2022-09-13T05:28:59;13.90;65.90
12164;DHT22;6145;50.192;10.064;2022-09-13T05:31:28;13.90;66.00
12164;DHT22;6145;50.192;10.064;2022-09-13T05:33:58;13.90;66.00
12164;DHT22;6145;50.192;10.064;2022-09-13T05:36:25;14.00;66.20
12164;DHT22;6145;50.192;10.064;2022-09-13T05:38:52;13.90;66.20
12164;DHT22;6145;50.192;10.064;2022-09-13T05:41:20;14.00;66.30
12164;DHT22;6145;50.192;10.064;2022-09-13T05:43:47;13.90;66.20
12164;DHT22;6145;50.192;10.064;2022-09-13T05:46:15;13.90;66.30
12164;DHT22;6145;50.192;10.064;2022-09-13T05:48:42;13.90;66.30
12164;DHT22;6145;50.192;10.064;2022-09-13T05:51:12;13.90;66.40
12164;DHT22;6145;50.192;10.064;2022-09-13T05:53:41;14.00;66.50
12164;DHT22;6145;50.192;10.064;2022-09-13T05:56:11;14.00;66.60
12164;DHT22;6145;50.192;10.064;2022-09-13T05:58:38;14.00;66.60
12164;DHT22;6145;50.192;10.064;2022-09-13T06:01:06;14.00;66.60
12164;DHT22;6145;50.192;10.064;2022-09-13T06:03:33;14.00;66.90
12164;DHT22;6145;50.192;10.064;2022-09-13T06:06:00;14.00;67.00
12164;DHT22;6145;50.192;10.064;2022-09-13T06:08:29;14.00;67.00
12164;DHT22;6145;50.192;10.064;2022-09-13T06:10:58;14.00;67.00
12164;DHT22;6145;50.192;10.064;2022-09-13T06:13:25;14.00;67.00
12164;DHT22;6145;50.192;10.064;2022-09-13T06:15:54;14.00;67.10
12164;DHT22;6145;50.192;10.064;2022-09-13T06:18:21;14.00;67.20
12164;DHT22;6145;50.192;10.064;2022-09-13T06:20:47;14.00;67.20
12164;DHT22;6145;50.192;10.064;2022-09-13T06:23:15;14.10;67.40
12164;DHT22;6145;50.192;10.064;2022-09-13T06:25:43;14.10;67.40
12164;DHT22;6145;50.192;10.064;2022-09-13T06:28:11;14.10;67.40
12164;DHT22;6145;50.192;10.064;2022-09-13T06:30:37;14.10;67.60
12164;DHT22;6145;50.192;10.064;2022-09-13T06:33:04;14.10;67.70
12164;DHT22;6145;50.192;10.064;2022-09-13T06:35:31;14.20;67.80
12164;DHT22;6145;50.192;10.064;2022-09-13T06:37:58;14.20;67.80
12164;DHT22;6145;50.192;10.064;2022-09-13T06:40:24;14.20;67.90
12164;DHT22;6145;50.192;10.064;2022-09-13T06:42:53;14.20;67.90
12164;DHT22;6145;50.192;10.064;2022-09-13T06:45:19;14.20;68.00
12164;DHT22;6145;50.192;10.064;2022-09-13T06:47:46;14.30;68.10
12164;DHT22;6145;50.192;10.064;2022-09-13T06:50:13;14.30;68.10
12164;DHT22;6145;50.192;10.064;2022-09-13T06:52:40;14.30;68.10
12164;DHT22;6145;50.192;10.064;2022-09-13T06:55:07;14.30;68.10
12164;DHT22;6145;50.192;10.064;2022-09-13T06:57:34;14.40;68.40
12164;DHT22;6145;50.192;10.064;2022-09-13T07:00:03;14.40;68.40
12164;DHT22;6145;50.192;10.064;2022-09-13T07:02:30;14.40;68.40
12164;DHT22;6145;50.192;10.064;2022-09-13T07:04:57;14.40;68.50
12164;DHT22;6145;50.192;10.064;2022-09-13T07:07:23;14.50;68.70
12164;DHT22;6145;50.192;10.064;2022-09-13T07:09:50;14.50;69.10
12164;DHT22;6145;50.192;10.064;2022-09-13T07:12:17;14.50;69.10
12164;DHT22;6145;50.192;10.064;2022-09-13T07:14:44;14.60;69.40
12164;DHT22;6145;50.192;10.064;2022-09-13T07:17:12;14.60;69.60
12164;DHT22;6145;50.192;10.064;2022-09-13T07:19:39;14.60;69.40
12164;DHT22;6145;50.192;10.064;2022-09-13T07:22:06;14.70;69.40
12164;DHT22;6145;50.192;10.064;2022-09-13T07:24:32;14.70;69.50
12164;DHT22;6145;50.192;10.064;2022-09-13T07:26:59;14.80;69.50
12164;DHT22;6145;50.192;10.064;2022-09-13T07:29:26;14.80;69.80
12164;DHT22;6145;50.192;10.064;2022-09-13T07:31:53;14.90;70.00
12164;DHT22;6145;50.192;10.064;2022-09-13T07:34:23;15.00;70.20
12164;DHT22;6145;50.192;10.064;2022-09-13T07:36:50;15.00;70.10
12164;DHT22;6145;50.192;10.064;2022-09-13T07:39:18;15.00;70.00
12164;DHT22;6145;50.192;10.064;2022-09-13T07:41:45;15.10;70.00
12164;DHT22;6145;50.192;10.064;2022-09-13T07:44:13;15.10;70.00
12164;DHT22;6145;50.192;10.064;2022-09-13T07:46:39;15.20;70.20
12164;DHT22;6145;50.192;10.064;2022-09-13T07:49:08;15.20;70.20
12164;DHT22;6145;50.192;10.064;2022-09-13T07:51:38;15.30;70.20
12164;DHT22;6145;50.192;10.064;2022-09-13T07:54:06;15.30;70.10
12164;DHT22;6145;50.192;10.064;2022-09-13T07:56:34;15.40;70.10
12164;DHT22;6145;50.192;10.064;2022-09-13T07:59:03;15.40;70.00
12164;DHT22;6145;50.192;10.064;2022-09-13T08:01:34;15.50;70.00
12164;DHT22;6145;50.192;10.064;2022-09-13T08:04:02;15.50;70.00
12164;DHT22;6145;50.192;10.064;2022-09-13T08:06:31;15.50;70.00
12164;DHT22;6145;50.192;10.064;2022-09-13T08:08:59;15.60;70.00
12164;DHT22;6145;50.192;10.064;2022-09-13T08:11:28;15.60;70.00
12164;DHT22;6145;50.192;10.064;2022-09-13T08:13:55;15.70;70.10
12164;DHT22;6145;50.192;10.064;2022-09-13T08:16:24;16.40;70.70
12164;DHT22;6145;50.192;10.064;2022-09-13T08:18:52;15.70;69.90
12164;DHT22;6145;50.192;10.064;2022-09-13T08:21:19;15.80;70.00
12164;DHT22;6145;50.192;10.064;2022-09-13T08:23:47;15.80;69.90
12164;DHT22;6145;50.192;10.064;2022-09-13T08:26:15;15.90;69.80
12164;DHT22;6145;50.192;10.064;2022-09-13T08:28:42;15.90;69.70
12164;DHT22;6145;50.192;10.064;2022-09-13T08:31:11;16.00;69.80
12164;DHT22;6145;50.192;10.064;2022-09-13T08:33:42;16.00;69.70
12164;DHT22;6145;50.192;10.064;2022-09-13T08:36:09;16.10;70.40
12164;DHT22;6145;50.192;10.064;2022-09-13T08:38:36;16.00;69.50
12164;DHT22;6145;50.192;10.064;2022-09-13T08:41:17;16.10;69.40
12164;DHT22;6145;50.192;10.064;2022-09-13T08:43:50;16.20;69.40
12164;DHT22;6145;50.192;10.064;2022-09-13T08:46:24;16.20;69.50
12164;DHT22;6145;50.192;10.064;2022-09-13T08:48:56;16.20;69.50
12164;DHT22;6145;50.192;10.064;2022-09-13T08:51:29;16.20;69.50
12164;DHT22;6145;50.192;10.064;2022-09-13T08:53:57;16.30;69.70
12164;DHT22;6145;50.192;10.064;2022-09-13T08:56:28;16.30;69.60
12164;DHT22;6145;50.192;10.064;2022-09-13T08:59:19;16.40;69.60
12164;DHT22;6145;50.192;10.064;2022-09-13T09:01:55;16.50;69.60
12164;DHT22;6145;50.192;10.064;2022-09-13T09:04:33;16.50;69.60
12164;DHT22;6145;50.192;10.064;2022-09-13T09:07:05;16.60;69.60
12164;DHT22;6145;50.192;10.064;2022-09-13T09:09:40;16.60;70.20
12164;DHT22;6145;50.192;10.064;2022-09-13T09:12:14;16.70;69.30
12164;DHT22;6145;50.192;10.064;2022-09-13T09:14:46;16.70;69.30
12164;DHT22;6145;50.192;10.064;2022-09-13T09:17:20;16.80;69.40
12164;DHT22;6145;50.192;10.064;2022-09-13T09:19:51;17.30;70.00
12164;DHT22;6145;50.192;10.064;2022-09-13T09:22:21;16.90;69.40
12164;DHT22;6145;50.192;10.064;2022-09-13T09:24:52;16.90;69.20
12164;DHT22;6145;50.192;10.064;2022-09-13T09:27:20;16.90;69.00
12164;DHT22;6145;50.192;10.064;2022-09-13T09:29:50;17.00;69.00
12164;DHT22;6145;50.192;10.064;2022-09-13T09:32:31;17.00;68.80
12164;DHT22;6145;50.192;10.064;2022-09-13T09:35:10;17.10;68.80
12164;DHT22;6145;50.192;10.064;2022-09-13T09:37:40;17.10;69.10
12164;DHT22;6145;50.192;10.064;2022-09-13T09:40:11;17.10;68.90
12164;DHT22;6145;50.192;10.064;2022-09-13T09:42:42;17.20;69.10
12164;DHT22;6145;50.192;10.064;2022-09-13T09:45:24;17.20;69.20
12164;DHT22;6145;50.192;10.064;2022-09-13T09:47:53;17.30;69.40
12164;DHT22;6145;50.192;10.064;2022-09-13T09:50:23;17.30;69.60
12164;DHT22;6145;50.192;10.064;2022-09-13T09:52:55;17.40;69.70
12164;DHT22;6145;50.192;10.064;2022-09-13T09:55:26;17.40;69.80
12164;DHT22;6145;50.192;10.064;2022-09-13T09:57:56;17.50;69.80
12164;DHT22;6145;50.192;10.064;2022-09-13T10:00:26;17.50;69.70
12164;DHT22;6145;50.192;10.064;2022-09-13T10:02:56;17.60;69.90
12164;DHT22;6145;50.192;10.064;2022-09-13T10:05:25;17.70;70.20
12164;DHT22;6145;50.192;10.064;2022-09-13T10:07:54;17.80;70.30
12164;DHT22;6145;50.192;10.064;2022-09-13T10:10:25;17.80;70.30
12164;DHT22;6145;50.192;10.064;2022-09-13T10:12:55;17.90;70.40
12164;DHT22;6145;50.192;10.064;2022-09-13T10:15:26;18.00;70.70
12164;DHT22;6145;50.192;10.064;2022-09-13T10:18:05;18.10;70.80
12164;DHT22;6145;50.192;10.064;2022-09-13T10:20:33;18.20;70.70
12164;DHT22;6145;50.192;10.064;2022-09-13T10:23:23;18.30;70.60
12164;DHT22;6145;50.192;10.064;2022-09-13T10:26:06;18.50;70.50
12164;DHT22;6145;50.192;10.064;2022-09-13T10:28:40;18.60;70.60
12164;DHT22;6145;50.192;10.064;2022-09-13T10:31:11;18.70;70.40
12164;DHT22;6145;50.192;10.064;2022-09-13T10:33:40;18.80;70.10
12164;DHT22;6145;50.192;10.064;2022-09-13T10:36:12;18.90;69.90
12164;DHT22;6145;50.192;10.064;2022-09-13T10:38:43;19.00;70.00
12164;DHT22;6145;50.192;10.064;2022-09-13T10:41:21;19.00;69.70
12164;DHT22;6145;50.192;10.064;2022-09-13T10:43:55;19.20;69.50
12164;DHT22;6145;50.192;10.064;2022-09-13T10:46:26;19.20;69.40
12164;DHT22;6145;50.192;10.064;2022-09-13T10:48:53;19.30;69.20
12164;DHT22;6145;50.192;10.064;2022-09-13T10:51:34;19.40;69.10
12164;DHT22;6145;50.192;10.064;2022-09-13T10:54:16;19.50;69.10
12164;DHT22;6145;50.192;10.064;2022-09-13T10:56:45;19.50;68.80
12164;DHT22;6145;50.192;10.064;2022-09-13T10:59:29;19.60;68.90
12164;DHT22;6145;50.192;10.064;2022-09-13T11:02:13;19.70;68.80
12164;DHT22;6145;50.192;10.064;2022-09-13T11:05:18;19.80;68.70
12164;DHT22;6145;50.192;10.064;2022-09-13T11:08:10;19.90;68.60
12164;DHT22;6145;50.192;10.064;2022-09-13T11:10:47;20.00;68.40
12164;DHT22;6145;50.192;10.064;2022-09-13T11:13:21;20.00;68.30
12164;DHT22;6145;50.192;10.064;2022-09-13T11:15:55;20.10;68.20
12164;DHT22;6145;50.192;10.064;2022-09-13T11:18:50;20.20;68.20
12164;DHT22;6145;50.192;10.064;2022-09-13T11:21:34;20.30;67.90
12164;DHT22;6145;50.192;10.064;2022-09-13T11:24:15;20.40;67.80
12164;DHT22;6145;50.192;10.064;2022-09-13T11:26:53;20.40;67.60
12164;DHT22;6145;50.192;10.064;2022-09-13T11:29:36;20.50;67.50
12164;DHT22;6145;50.192;10.064;2022-09-13T11:32:18;20.60;67.40
12164;DHT22;6145;50.192;10.064;2022-09-13T11:35:17;20.70;67.30
12164;DHT22;6145;50.192;10.064;2022-09-13T11:37:52;20.80;67.00
12164;DHT22;6145;50.192;10.064;2022-09-13T11:40:29;20.90;67.00
12164;DHT22;6145;50.192;10.064;2022-09-13T11:43:08;21.00;67.00
12164;DHT22;6145;50.192;10.064;2022-09-13T11:45:42;21.00;66.90
12164;DHT22;6145;50.192;10.064;2022-09-13T11:48:41;21.10;66.60
12164;DHT22;6145;50.192;10.064;2022-09-13T11:51:20;21.20;66.30
12164;DHT22;6145;50.192;10.064;2022-09-13T11:54:06;21.30;66.40
12164;DHT22;6145;50.192;10.064;2022-09-13T11:56:38;21.40;66.10
12164;DHT22;6145;50.192;10.064;2022-09-13T11:59:17;21.50;65.60
12164;DHT22;6145;50.192;10.064;2022-09-13T12:01:49;21.60;65.40
12164;DHT22;6145;50.192;10.064;2022-09-13T12:04:20;21.60;65.20
12164;DHT22;6145;50.192;10.064;2022-09-13T12:06:54;21.70;65.00
12164;DHT22;6145;50.192;10.064;2022-09-13T12:09:26;21.80;64.60
12164;DHT22;6145;50.192;10.064;2022-09-13T12:12:00;21.90;64.20
12164;DHT22;6145;50.192;10.064;2022-09-13T12:14:35;22.00;63.70
12164;DHT22;6145;50.192;10.064;2022-09-13T12:17:09;22.00;63.10
12164;DHT22;6145;50.192;10.064;2022-09-13T12:19:42;22.10;62.90
12164;DHT22;6145;50.192;10.064;2022-09-13T12:22:12;22.10;61.90
12164;DHT22;6145;50.192;10.064;2022-09-13T12:24:42;22.30;61.90
12164;DHT22;6145;50.192;10.064;2022-09-13T12:27:18;22.30;61.70
12164;DHT22;6145;50.192;10.064;2022-09-13T12:29:50;22.30;61.40
12164;DHT22;6145;50.192;10.064;2022-09-13T12:32:18;22.40;61.30
12164;DHT22;6145;50.192;10.064;2022-09-13T12:34:50;22.50;61.20
12164;DHT22;6145;50.192;10.064;2022-09-13T12:37:39;22.50;60.90
12164;DHT22;6145;50.192;10.064;2022-09-13T12:40:29;22.60;60.80
12164;DHT22;6145;50.192;10.064;2022-09-13T12:43:11;22.60;60.70
12164;DHT22;6145;50.192;10.064;2022-09-13T12:45:57;22.60;60.50
12164;DHT22;6145;50.192;10.064;2022-09-13T12:48:41;22.70;60.50
12164;DHT22;6145;50.192;10.064;2022-09-13T12:51:23;22.70;60.20
12164;DHT22;6145;50.192;10.064;2022-09-13T12:54:22;22.80;60.10
12164;DHT22;6145;50.192;10.064;2022-09-13T12:57:12;22.80;60.00
12164;DHT22;6145;50.192;10.064;2022-09-13T12:59:54;22.80;60.00
12164;DHT22;6145;50.192;10.064;2022-09-13T13:02:28;22.90;59.90
12164;DHT22;6145;50.192;10.064;2022-09-13T13:04:59;22.90;59.70
12164;DHT22;6145;50.192;10.064;2022-09-13T13:07:27;22.90;59.50
12164;DHT22;6145;50.192;10.064;2022-09-13T13:09:56;23.00;59.20
12164;DHT22;6145;50.192;10.064;2022-09-13T13:12:29;23.00;59.00
12164;DHT22;6145;50.192;10.064;2022-09-13T13:14:58;23.00;58.30
12164;DHT22;6145;50.192;10.064;2022-09-13T13:17:43;23.10;58.60
12164;DHT22;6145;50.192;10.064;2022-09-13T13:20:39;23.20;58.50
12164;DHT22;6145;50.192;10.064;2022-09-13T13:23:16;23.20;58.50
12164;DHT22;6145;50.192;10.064;2022-09-13T13:26:00;23.20;58.50
12164;DHT22;6145;50.192;10.064;2022-09-13T13:29:03;23.30;58.40
12164;DHT22;6145;50.192;10.064;2022-09-13T13:31:37;23.40;58.20
12164;DHT22;6145;50.192;10.064;2022-09-13T13:34:27;23.40;57.90
12164;DHT22;6145;50.192;10.064;2022-09-13T13:36:59;23.40;57.70
12164;DHT22;6145;50.192;10.064;2022-09-13T13:39:48;23.40;57.20
12164;DHT22;6145;50.192;10.064;2022-09-13T13:42:26;23.50;57.00
12164;DHT22;6145;50.192;10.064;2022-09-13T13:45:23;23.60;57.10
12164;DHT22;6145;50.192;10.064;2022-09-13T13:53:46;23.70;56.80
12164;DHT22;6145;50.192;10.064;2022-09-13T13:56:31;23.70;56.80
12164;DHT22;6145;50.192;10.064;2022-09-13T13:59:06;23.80;56.80
12164;DHT22;6145;50.192;10.064;2022-09-13T14:01:35;23.80;56.90
12164;DHT22;6145;50.192;10.064;2022-09-13T14:07:14;23.80;57.00
12164;DHT22;6145;50.192;10.064;2022-09-13T14:09:49;23.90;57.90
12164;DHT22;6145;50.192;10.064;2022-09-13T14:12:29;23.90;57.40
12164;DHT22;6145;50.192;10.064;2022-09-13T14:15:10;23.90;57.40
12164;DHT22;6145;50.192;10.064;2022-09-13T14:18:08;24.00;57.40
12164;DHT22;6145;50.192;10.064;2022-09-13T14:20:37;24.00;57.20
12164;DHT22;6145;50.192;10.064;2022-09-13T14:23:10;24.00;57.20
12164;DHT22;6145;50.192;10.064;2022-09-13T14:25:37;24.10;57.10
12164;DHT22;6145;50.192;10.064;2022-09-13T14:28:05;24.10;57.10
12164;DHT22;6145;50.192;10.064;2022-09-13T14:30:36;24.20;57.20
12164;DHT22;6145;50.192;10.064;2022-09-13T14:33:04;24.20;57.30
12164;DHT22;6145;50.192;10.064;2022-09-13T14:35:35;24.20;57.20
12164;DHT22;6145;50.192;10.064;2022-09-13T14:38:10;24.20;57.20
12164;DHT22;6145;50.192;10.064;2022-09-13T14:40:37;24.30;58.00
12164;DHT22;6145;50.192;10.064;2022-09-13T14:43:13;24.40;57.60
12164;DHT22;6145;50.192;10.064;2022-09-13T14:45:43;24.40;57.50
12164;DHT22;6145;50.192;10.064;2022-09-13T14:48:15;24.40;57.50
12164;DHT22;6145;50.192;10.064;2022-09-13T14:50:48;24.50;57.40
12164;DHT22;6145;50.192;10.064;2022-09-13T14:53:19;24.50;57.30
12164;DHT22;6145;50.192;10.064;2022-09-13T14:55:50;24.50;57.90
12164;DHT22;6145;50.192;10.064;2022-09-13T14:58:21;24.60;57.10
12164;DHT22;6145;50.192;10.064;2022-09-13T15:00:55;24.60;56.60
12164;DHT22;6145;50.192;10.064;2022-09-13T15:03:24;24.80;56.30
12164;DHT22;6145;50.192;10.064;2022-09-13T15:05:53;24.70;56.20
12164;DHT22;6145;50.192;10.064;2022-09-13T15:08:26;24.80;56.00
12164;DHT22;6145;50.192;10.064;2022-09-13T15:10:55;24.80;56.00
12164;DHT22;6145;50.192;10.064;2022-09-13T15:13:22;24.90;55.80
12164;DHT22;6145;50.192;10.064;2022-09-13T15:15:51;24.80;55.70
12164;DHT22;6145;50.192;10.064;2022-09-13T15:18:23;24.90;55.60
12164;DHT22;6145;50.192;10.064;2022-09-13T15:20:52;24.90;55.50
12164;DHT22;6145;50.192;10.064;2022-09-13T15:23:22;24.80;55.50
12164;DHT22;6145;50.192;10.064;2022-09-13T15:25:52;24.80;54.70
12164;DHT22;6145;50.192;10.064;2022-09-13T15:28:22;24.90;54.60
12164;DHT22;6145;50.192;10.064;2022-09-13T15:30:51;24.90;54.50
12164;DHT22;6145;50.192;10.064;2022-09-13T15:33:23;24.80;54.40
12164;DHT22;6145;50.192;10.064;2022-09-13T15:35:51;24.80;54.40
12164;DHT22;6145;50.192;10.064;2022-09-13T15:38:25;24.90;54.50
12164;DHT22;6145;50.192;10.064;2022-09-13T15:41:01;24.70;54.30
12164;DHT22;6145;50.192;10.064;2022-09-13T15:43:28;24.80;54.30
12164;DHT22;6145;50.192;10.064;2022-09-13T15:45:58;24.80;54.20
12164;DHT22;6145;50.192;10.064;2022-09-13T15:48:27;24.80;54.20
12164;DHT22;6145;50.192;10.064;2022-09-13T15:51:07;24.70;54.30
12164;DHT22;6145;50.192;10.064;2022-09-13T15:53:34;24.80;54.30
12164;DHT22;6145;50.192;10.064;2022-09-13T15:56:02;24.70;54.30
12164;DHT22;6145;50.192;10.064;2022-09-13T15:58:30;24.80;54.30
12164;DHT22;6145;50.192;10.064;2022-09-13T16:00:58;24.60;54.20
12164;DHT22;6145;50.192;10.064;2022-09-13T16:03:25;24.80;54.30
12164;DHT22;6145;50.192;10.064;2022-09-13T16:05:52;24.80;54.00
12164;DHT22;6145;50.192;10.064;2022-09-13T16:08:19;24.70;54.00
12164;DHT22;6145;50.192;10.064;2022-09-13T16:10:46;24.80;53.90
12164;DHT22;6145;50.192;10.064;2022-09-13T16:13:12;24.70;53.70
12164;DHT22;6145;50.192;10.064;2022-09-13T16:15:39;24.70;53.80
12164;DHT22;6145;50.192;10.064;2022-09-13T16:18:08;24.70;54.40